Time,TemperatureF,DewpointF,PressureIn,WindDirection,WindDirectionDegrees,WindSpeedMPH,WindSpeedGustMPH,Humidity,HourlyPrecipIn,Conditions,Clouds,dailyrainin,SoftwareType,DateUTC
2013-04-04 00:04:00,49.8,39.3,30.24,NE,42,0.0,0.0,67,0.00,CLR,,0.00,WeatherDisplay:10.37,2013-04-04 05:04:00,
2013-04-04 00:09:00,49.5,40.1,30.24,NE,42,0.0,0.0,70,0.00,CLR,,0.00,WeatherDisplay:10.37,2013-04-04 05:09:00,
2013-04-04 00:15:00,49.2,40.2,30.25,NE,42,0.0,0.0,71,0.00,CLR,,0.00,WeatherDisplay:10.37,2013-04-04 05:15:00,
2013-04-04 00:20:00,48.9,40.3,30.25,NE,42,0.0,0.0,72,0.00,CLR,,0.00,WeatherDisplay:10.37,2013-04-04 05:20:00,
2013-04-04 00:24:00,48.6,40.3,30.25,NE,42,0.0,0.0,73,0.00,RA,,0.01,WeatherDisplay:10.37,2013-04-04 05:24:00,
2013-04-04 00:29:00,48.2,40.3,30.25,NE,42,0.0,0.0,74,0.01,RA,,0.01,WeatherDisplay:10.37,2013-04-04 05:29:00,
2013-04-04 00:34:00,47.9,40.0,30.25,NE,42,0.0,0.0,74,0.00,CLR,,0.01,WeatherDisplay:10.37,2013-04-04 05:34:00,
2013-04-04 00:39:00,47.4,39.5,30.25,NE,42,0.0,0.0,74,0.01,CLR,,0.01,WeatherDisplay:10.37,2013-04-04 05:39:00,
2013-04-04 00:44:00,47.3,39.8,30.25,NE,42,0.0,0.0,75,0.00,CLR,,0.01,WeatherDisplay:10.37,2013-04-04 05:44:00,
2013-04-04 00:50:00,47.0,38.8,30.25,NE,42,0.0,0.0,73,0.00,CLR,,0.01,WeatherDisplay:10.37,2013-04-04 05:50:00,
2013-04-04 00:54:00,46.9,38.7,30.25,NE,42,0.0,0.0,73,0.00,CLR,,0.01,WeatherDisplay:10.37,2013-04-04 05:54:00,
2013-04-04 00:59:00,46.8,38.9,30.25,NE,42,0.0,0.0,74,0.00,CLR,,0.01,WeatherDisplay:10.37,2013-04-04 05:59:00,
2013-04-04 01:04:00,46.8,40.3,30.25,NE,42,0.0,0.0,78,0.02,RA,,0.02,WeatherDisplay:10.37,2013-04-04 06:04:00,
2013-04-04 01:10:00,46.8,41.0,30.25,NE,42,0.0,0.0,80,0.00,RA,,0.02,WeatherDisplay:10.37,2013-04-04 06:10:00,
2013-04-04 01:14:00,46.8,42.2,30.25,NE,42,0.0,0.0,84,0.00,CLR,,0.02,WeatherDisplay:10.37,2013-04-04 06:14:00,
2013-04-04 01:20:00,46.7,42.1,30.25,NE,42,0.0,0.0,84,0.00,CLR,,0.02,WeatherDisplay:10.37,2013-04-04 06:20:00,
2013-04-04 01:25:00,46.5,41.9,30.25,NE,42,0.0,0.0,84,0.00,CLR,,0.02,WeatherDisplay:10.37,2013-04-04 06:25:00,
2013-04-04 01:30:00,46.2,41.9,30.24,NE,42,0.0,0.0,85,0.00,CLR,,0.02,WeatherDisplay:10.37,2013-04-04 06:30:00,
2013-04-04 01:34:00,46.1,42.1,30.24,NE,42,0.0,0.0,86,0.00,CLR,,0.02,WeatherDisplay:10.37,2013-04-04 06:34:00,
2013-04-04 01:40:00,46.0,42.0,30.24,NE,42,0.0,0.0,86,0.01,RA,,0.03,WeatherDisplay:10.37,2013-04-04 06:40:00,
2013-04-04 01:45:00,45.8,41.9,30.23,NE,42,0.0,0.0,86,0.02,RA,,0.03,WeatherDisplay:10.37,2013-04-04 06:45:00,
2013-04-04 01:50:00,45.7,41.8,30.23,NE,42,0.0,0.0,86,0.02,,,0.03,WeatherDisplay:10.37,2013-04-04 06:50:00,
2013-04-04 01:55:00,45.4,41.5,30.23,NE,42,0.0,0.0,86,0.02,CLR,,0.03,WeatherDisplay:10.37,2013-04-04 06:55:00,
2013-04-04 02:00:00,45.2,41.6,30.23,NE,42,0.0,0.0,87,0.03,RA,,0.04,WeatherDisplay:10.37,2013-04-04 07:00:00,
2013-04-04 02:05:00,45.1,41.5,30.23,NE,42,0.0,0.0,87,0.02,RA,,0.04,WeatherDisplay:10.37,2013-04-04 07:05:00,
2013-04-04 02:10:00,44.8,41.2,30.22,NE,42,0.0,0.0,87,0.02,CLR,,0.04,WeatherDisplay:10.37,2013-04-04 07:10:00,
2013-04-04 02:15:00,44.6,41.0,30.22,NE,42,0.0,0.0,87,0.02,CLR,,0.04,WeatherDisplay:10.37,2013-04-04 07:15:00,
2013-04-04 02:20:00,44.6,41.3,30.22,NE,42,0.0,0.0,88,0.02,CLR,,0.04,WeatherDisplay:10.37,2013-04-04 07:20:00,
2013-04-04 02:25:00,44.5,41.2,30.22,NE,42,0.0,0.0,88,0.03,RA,,0.05,WeatherDisplay:10.37,2013-04-04 07:25:00,
2013-04-04 02:30:00,44.3,40.7,30.22,NE,42,0.0,0.0,87,0.03,RA,,0.05,WeatherDisplay:10.37,2013-04-04 07:30:00,
2013-04-04 02:35:00,44.3,41.0,30.22,NE,42,0.0,0.0,88,0.03,CLR,,0.05,WeatherDisplay:10.37,2013-04-04 07:35:00,
2013-04-04 02:40:00,44.3,41.3,30.22,NE,42,0.0,0.0,89,0.02,CLR,,0.05,WeatherDisplay:10.37,2013-04-04 07:40:00,
2013-04-04 02:45:00,44.3,41.3,30.22,NE,42,0.0,0.0,89,0.02,CLR,,0.05,WeatherDisplay:10.37,2013-04-04 07:45:00,
2013-04-04 02:50:00,44.3,41.3,30.21,NE,42,0.0,0.0,89,0.02,CLR,,0.05,WeatherDisplay:10.37,2013-04-04 07:50:00,
2013-04-04 02:55:00,44.3,41.3,30.21,NE,42,0.0,0.0,89,0.02,CLR,,0.05,WeatherDisplay:10.37,2013-04-04 07:55:00,
2013-04-04 03:00:00,44.2,41.2,30.21,NE,42,0.0,0.0,89,0.01,CLR,,0.05,WeatherDisplay:10.37,2013-04-04 08:00:00,
2013-04-04 03:05:00,44.2,41.2,30.21,NE,42,0.0,0.0,89,0.01,CLR,,0.05,WeatherDisplay:10.37,2013-04-04 08:05:00,
2013-04-04 03:10:00,44.3,41.3,30.21,NE,42,0.0,0.0,89,0.01,CLR,,0.05,WeatherDisplay:10.37,2013-04-04 08:10:00,
2013-04-04 03:16:00,44.3,41.3,30.20,NE,42,0.0,0.0,89,0.01,CLR,,0.05,WeatherDisplay:10.37,2013-04-04 08:16:00,
2013-04-04 03:21:00,44.3,41.3,30.20,NE,42,0.0,0.0,89,0.01,CLR,,0.05,WeatherDisplay:10.37,2013-04-04 08:21:00,
2013-04-04 03:27:00,44.3,41.3,30.20,NE,42,0.0,0.0,89,0.00,CLR,,0.05,WeatherDisplay:10.37,2013-04-04 08:27:00,
2013-04-04 03:32:00,44.2,41.2,30.20,NE,42,0.0,0.0,89,0.00,CLR,,0.06,WeatherDisplay:10.37,2013-04-04 08:32:00,
2013-04-04 03:37:00,44.2,41.2,30.20,NE,42,0.0,0.0,89,0.01,RA,,0.06,WeatherDisplay:10.37,2013-04-04 08:37:00,
2013-04-04 03:42:00,44.3,41.3,30.20,NE,42,0.0,0.0,89,0.01,RA,,0.06,WeatherDisplay:10.37,2013-04-04 08:42:00,
2013-04-04 03:47:00,44.3,41.3,30.20,NE,42,0.0,0.0,89,0.01,CLR,,0.06,WeatherDisplay:10.37,2013-04-04 08:47:00,
2013-04-04 03:52:00,44.3,41.0,30.19,NE,42,0.0,0.0,88,0.01,CLR,,0.06,WeatherDisplay:10.37,2013-04-04 08:52:00,
2013-04-04 03:57:00,44.3,41.0,30.19,NE,42,0.0,0.0,88,0.01,CLR,,0.06,WeatherDisplay:10.37,2013-04-04 08:57:00,
2013-04-04 04:03:00,44.2,41.2,30.18,NE,42,0.0,0.0,89,0.02,RA,,0.07,WeatherDisplay:10.37,2013-04-04 09:03:00,
2013-04-04 04:08:00,44.2,41.2,30.18,NE,42,0.0,0.0,89,0.02,RA,,0.07,WeatherDisplay:10.37,2013-04-04 09:08:00,
2013-04-04 04:13:00,44.2,41.2,30.18,NE,42,0.0,0.0,89,0.02,,,0.07,WeatherDisplay:10.37,2013-04-04 09:13:00,
2013-04-04 04:18:00,44.1,41.1,30.18,NE,42,0.0,0.0,89,0.02,CLR,,0.07,WeatherDisplay:10.37,2013-04-04 09:18:00,
2013-04-04 04:23:00,44.1,40.8,30.18,NE,42,0.0,0.0,88,0.02,CLR,,0.07,WeatherDisplay:10.37,2013-04-04 09:23:00,
2013-04-04 04:28:00,44.1,40.8,30.18,NE,42,0.0,0.0,88,0.02,CLR,,0.07,WeatherDisplay:10.37,2013-04-04 09:28:00,
2013-04-04 04:33:00,44.1,40.8,30.17,NE,42,1.1,1.1,88,0.01,CLR,,0.07,WeatherDisplay:10.37,2013-04-04 09:33:00,
2013-04-04 04:38:00,44.2,40.9,30.17,NE,42,1.1,0.0,88,0.01,CLR,,0.07,WeatherDisplay:10.37,2013-04-04 09:38:00,
2013-04-04 04:43:00,44.2,40.9,30.17,NE,42,0.0,0.0,88,0.02,RA,,0.08,WeatherDisplay:10.37,2013-04-04 09:43:00,
2013-04-04 04:48:00,44.2,40.6,30.17,NE,42,0.0,0.0,87,0.02,RA,,0.08,WeatherDisplay:10.37,2013-04-04 09:48:00,
2013-04-04 04:53:00,44.3,40.7,30.17,NE,42,0.0,0.0,87,0.02,,,0.08,WeatherDisplay:10.37,2013-04-04 09:53:00,
2013-04-04 04:59:00,44.5,40.9,30.17,NE,42,0.0,0.0,87,0.02,CLR,,0.08,WeatherDisplay:10.37,2013-04-04 09:59:00,
2013-04-04 05:04:00,44.5,40.9,30.17,NE,42,0.0,0.0,87,0.01,CLR,,0.09,WeatherDisplay:10.37,2013-04-04 10:04:00,
2013-04-04 05:09:00,44.6,41.3,30.17,NE,42,0.0,0.0,88,0.02,RA,,0.09,WeatherDisplay:10.37,2013-04-04 10:09:00,
2013-04-04 05:14:00,44.6,41.6,30.17,NE,42,0.0,0.0,89,0.03,RA,,0.10,WeatherDisplay:10.37,2013-04-04 10:14:00,
2013-04-04 05:19:00,44.6,41.6,30.17,NE,42,0.0,0.0,89,0.03,RA,,0.10,WeatherDisplay:10.37,2013-04-04 10:19:00,
2013-04-04 05:24:00,44.6,41.6,30.17,NE,42,0.0,0.0,89,0.00,CLR,,0.10,WeatherDisplay:10.37,2013-04-04 10:24:00,
2013-04-04 05:30:00,44.6,41.6,30.17,NE,42,0.0,0.0,89,0.04,RA,,0.11,WeatherDisplay:10.37,2013-04-04 10:30:00,
2013-04-04 05:35:00,44.6,41.8,30.17,NE,42,0.0,0.0,90,0.04,RA,,0.11,WeatherDisplay:10.37,2013-04-04 10:35:00,
2013-04-04 05:40:00,44.6,41.8,30.17,NE,42,0.0,0.0,90,0.04,CLR,,0.11,WeatherDisplay:10.37,2013-04-04 10:40:00,
2013-04-04 05:45:00,44.6,41.8,30.17,NE,42,0.0,0.0,90,0.04,RA,,0.12,WeatherDisplay:10.37,2013-04-04 10:45:00,
2013-04-04 05:50:00,44.5,42.0,30.17,NE,42,0.0,0.0,91,0.05,RA,,0.13,WeatherDisplay:10.37,2013-04-04 10:50:00,
2013-04-04 05:55:00,44.5,42.0,30.17,NE,42,0.0,0.0,91,0.06,RA,,0.14,WeatherDisplay:10.37,2013-04-04 10:55:00,
2013-04-04 06:00:00,44.5,42.0,30.17,NE,42,0.0,0.0,91,0.08,RA,,0.16,WeatherDisplay:10.37,2013-04-04 11:00:00,
2013-04-04 06:05:00,44.3,41.8,30.17,NE,42,0.0,0.0,91,0.08,RA,,0.17,WeatherDisplay:10.37,2013-04-04 11:05:00,
2013-04-04 06:10:00,44.3,41.8,30.18,NE,42,0.0,0.0,91,0.09,RA,,0.18,WeatherDisplay:10.37,2013-04-04 11:10:00,
2013-04-04 06:15:00,44.3,42.1,30.18,NE,42,0.0,0.0,92,0.10,RA,,0.20,WeatherDisplay:10.37,2013-04-04 11:15:00,
2013-04-04 06:20:00,44.3,42.1,30.17,NE,42,0.0,0.0,92,0.11,RA,,0.21,WeatherDisplay:10.37,2013-04-04 11:20:00,
2013-04-04 06:25:00,44.3,42.1,30.17,NE,42,0.0,0.0,92,0.13,RA,,0.23,WeatherDisplay:10.37,2013-04-04 11:25:00,
2013-04-04 06:30:00,44.2,42.0,30.18,NE,42,1.1,1.1,92,0.13,RA,,0.24,WeatherDisplay:10.37,2013-04-04 11:30:00,
2013-04-04 06:35:00,44.2,42.0,30.18,NE,42,0.0,0.0,92,0.15,RA,,0.26,WeatherDisplay:10.37,2013-04-04 11:35:00,
2013-04-04 06:40:00,44.2,42.0,30.18,NE,42,1.1,0.0,92,0.17,RA,,0.28,WeatherDisplay:10.37,2013-04-04 11:40:00,
2013-04-04 06:45:00,44.2,42.0,30.18,NE,42,0.0,0.0,92,0.18,RA,,0.30,WeatherDisplay:10.37,2013-04-04 11:45:00,
2013-04-04 06:50:00,44.2,42.0,30.18,NE,42,0.0,0.0,92,0.19,RA,,0.32,WeatherDisplay:10.37,2013-04-04 11:50:00,
2013-04-04 06:55:00,44.2,42.0,30.17,NNE,14,3.5,3.5,92,0.19,RA,,0.33,WeatherDisplay:10.37,2013-04-04 11:55:00,
2013-04-04 07:00:00,44.1,41.9,30.18,NNE,14,1.1,0.0,92,0.19,RA,,0.35,WeatherDisplay:10.37,2013-04-04 12:00:00,
2013-04-04 07:05:00,44.1,42.2,30.18,NNE,14,0.0,0.0,93,0.19,RA,,0.37,WeatherDisplay:10.37,2013-04-04 12:05:00,
2013-04-04 07:10:00,44.1,42.2,30.18,NNE,14,1.1,0.0,93,0.20,RA,,0.38,WeatherDisplay:10.37,2013-04-04 12:10:00,
2013-04-04 07:15:00,44.1,42.2,30.19,NNE,14,0.0,0.0,93,0.20,RA,,0.40,WeatherDisplay:10.37,2013-04-04 12:15:00,
2013-04-04 07:20:00,44.1,42.2,30.19,NNE,14,3.0,3.0,93,0.20,RA,,0.41,WeatherDisplay:10.37,2013-04-04 12:20:00,
2013-04-04 07:26:00,44.1,42.2,30.19,NNE,14,0.0,0.0,93,0.20,RA,,0.43,WeatherDisplay:10.37,2013-04-04 12:26:00,
2013-04-04 07:31:00,44.1,42.2,30.19,NNE,14,0.0,0.0,93,0.21,RA,,0.45,WeatherDisplay:10.37,2013-04-04 12:31:00,
2013-04-04 07:36:00,44.1,42.2,30.19,NNE,14,0.0,0.0,93,0.20,RA,,0.47,WeatherDisplay:10.37,2013-04-04 12:36:00,
2013-04-04 07:41:00,44.1,42.2,30.19,NNE,14,0.0,0.0,93,0.20,RA,,0.49,WeatherDisplay:10.37,2013-04-04 12:41:00,
2013-04-04 07:47:00,44.1,42.2,30.19,NNE,14,1.1,0.0,93,0.21,RA,,0.51,WeatherDisplay:10.37,2013-04-04 12:47:00,
2013-04-04 07:52:00,44.1,42.2,30.19,NNE,14,0.0,0.0,93,0.21,RA,,0.53,WeatherDisplay:10.37,2013-04-04 12:52:00,
2013-04-04 07:57:00,44.1,42.2,30.19,NNE,14,0.0,0.0,93,0.20,RA,,0.54,WeatherDisplay:10.37,2013-04-04 12:57:00,
2013-04-04 08:02:00,44.1,42.2,30.19,NNE,14,0.0,0.0,93,0.20,RA,,0.56,WeatherDisplay:10.37,2013-04-04 13:02:00,
2013-04-04 08:07:00,44.1,42.2,30.19,NNE,14,0.0,0.0,93,0.20,RA,,0.57,WeatherDisplay:10.37,2013-04-04 13:07:00,
2013-04-04 08:12:00,44.1,42.2,30.19,NNE,14,0.0,0.0,93,0.19,RA,,0.58,WeatherDisplay:10.37,2013-04-04 13:12:00,
2013-04-04 08:17:00,44.1,42.5,30.19,NNE,14,3.5,3.5,94,0.20,RA,,0.60,WeatherDisplay:10.37,2013-04-04 13:17:00,
2013-04-04 08:22:00,44.2,42.6,30.18,NNE,19,3.5,3.5,94,0.19,RA,,0.61,WeatherDisplay:10.37,2013-04-04 13:22:00,
2013-04-04 08:27:00,44.2,42.6,30.19,NE,52,3.5,3.5,94,0.20,RA,,0.63,WeatherDisplay:10.37,2013-04-04 13:27:00,
2013-04-04 08:32:00,44.2,42.6,30.19,NE,52,1.1,1.1,94,0.19,RA,,0.64,WeatherDisplay:10.37,2013-04-04 13:32:00,
2013-04-04 08:37:00,44.3,42.7,30.18,NE,40,4.6,4.6,94,0.18,RA,,0.65,WeatherDisplay:10.37,2013-04-04 13:37:00,
2013-04-04 08:42:00,44.3,42.7,30.18,ENE,68,3.5,3.5,94,0.16,RA,,0.66,WeatherDisplay:10.37,2013-04-04 13:42:00,
2013-04-04 08:47:00,44.3,42.4,30.18,NNW,338,2.3,2.3,93,0.15,RA,,0.66,WeatherDisplay:10.37,2013-04-04 13:47:00,
2013-04-04 08:52:00,44.3,42.4,30.18,NNE,24,3.5,3.5,93,0.13,RA,,0.66,WeatherDisplay:10.37,2013-04-04 13:52:00,
2013-04-04 08:57:00,44.3,42.4,30.19,NE,41,3.5,3.5,93,0.12,CLR,,0.66,WeatherDisplay:10.37,2013-04-04 13:57:00,
2013-04-04 09:02:00,44.5,42.6,30.18,NE,44,1.1,0.0,93,0.10,CLR,,0.66,WeatherDisplay:10.37,2013-04-04 14:02:00,
2013-04-04 09:07:00,44.5,42.6,30.18,NE,44,1.0,0.0,93,0.10,RA,,0.67,WeatherDisplay:10.37,2013-04-04 14:07:00,
2013-04-04 09:12:00,44.5,42.6,30.18,NNE,17,3.5,3.5,93,0.10,RA,,0.68,WeatherDisplay:10.37,2013-04-04 14:12:00,
2013-04-04 09:17:00,44.5,42.6,30.18,NNE,17,1.1,1.1,93,0.09,RA,,0.69,WeatherDisplay:10.37,2013-04-04 14:17:00,
2013-04-04 09:22:00,44.5,42.6,30.19,East,96,1.1,1.1,93,0.09,RA,,0.70,WeatherDisplay:10.37,2013-04-04 14:22:00,
2013-04-04 09:27:00,44.5,42.6,30.19,North,5,3.5,0.0,93,0.08,RA,,0.71,WeatherDisplay:10.37,2013-04-04 14:27:00,
2013-04-04 09:32:00,44.5,42.6,30.19,NNE,13,2.3,0.0,93,0.08,RA,,0.72,WeatherDisplay:10.37,2013-04-04 14:32:00,
2013-04-04 09:37:00,44.3,42.4,30.18,NNE,13,0.0,0.0,93,0.08,RA,,0.73,WeatherDisplay:10.37,2013-04-04 14:37:00,
2013-04-04 09:43:00,44.3,42.4,30.19,NNE,13,0.0,0.0,93,0.08,RA,,0.75,WeatherDisplay:10.37,2013-04-04 14:43:00,
2013-04-04 09:48:00,44.3,42.4,30.19,NNE,13,0.0,0.0,93,0.10,RA,,0.76,WeatherDisplay:10.37,2013-04-04 14:48:00,
2013-04-04 09:53:00,44.5,42.9,30.19,NNE,13,0.0,0.0,94,0.11,RA,,0.77,WeatherDisplay:10.37,2013-04-04 14:53:00,
2013-04-04 09:58:00,44.6,43.0,30.19,NNE,13,0.0,0.0,94,0.12,RA,,0.78,WeatherDisplay:10.37,2013-04-04 14:58:00,
2013-04-04 10:03:00,44.6,43.0,30.19,NNE,13,0.0,0.0,94,0.13,RA,,0.79,WeatherDisplay:10.37,2013-04-04 15:03:00,
2013-04-04 10:08:00,44.6,43.0,30.19,NNE,13,0.0,0.0,94,0.13,RA,,0.80,WeatherDisplay:10.37,2013-04-04 15:08:00,
2013-04-04 10:13:00,44.8,43.2,30.20,NNE,13,0.0,0.0,94,0.13,RA,,0.81,WeatherDisplay:10.37,2013-04-04 15:13:00,
2013-04-04 10:18:00,44.6,43.0,30.20,NNE,13,0.0,0.0,94,0.13,RA,,0.82,WeatherDisplay:10.37,2013-04-04 15:18:00,
2013-04-04 10:23:00,44.6,43.0,30.20,NNE,13,1.1,0.0,94,0.13,RA,,0.83,WeatherDisplay:10.37,2013-04-04 15:23:00,
2013-04-04 10:28:00,44.8,43.2,30.20,NNE,13,0.0,0.0,94,0.13,RA,,0.84,WeatherDisplay:10.37,2013-04-04 15:28:00,
2013-04-04 10:33:00,44.8,43.2,30.20,NNE,13,0.0,0.0,94,0.13,RA,,0.85,WeatherDisplay:10.37,2013-04-04 15:33:00,
2013-04-04 10:38:00,44.9,43.3,30.20,NNE,13,0.0,0.0,94,0.13,RA,,0.86,WeatherDisplay:10.37,2013-04-04 15:38:00,
2013-04-04 10:43:00,44.9,43.3,30.20,NNE,13,0.0,0.0,94,0.13,RA,,0.87,WeatherDisplay:10.37,2013-04-04 15:43:00,
2013-04-04 10:48:00,45.1,43.2,30.20,NNE,13,0.0,0.0,93,0.11,RA,,0.87,WeatherDisplay:10.37,2013-04-04 15:48:00,
2013-04-04 10:53:00,45.1,43.2,30.20,NNE,13,0.0,0.0,93,0.11,RA,,0.88,WeatherDisplay:10.37,2013-04-04 15:53:00,
2013-04-04 10:58:00,45.1,43.2,30.20,NNE,13,0.0,0.0,93,0.11,RA,,0.89,WeatherDisplay:10.37,2013-04-04 15:58:00,
2013-04-04 11:03:00,45.1,43.2,30.20,NNE,13,2.3,2.3,93,0.10,RA,,0.89,WeatherDisplay:10.37,2013-04-04 16:03:00,
2013-04-04 11:09:00,45.1,43.2,30.20,NNE,13,1.1,0.0,93,0.09,RA,,0.90,WeatherDisplay:10.37,2013-04-04 16:09:00,
2013-04-04 11:14:00,45.1,43.2,30.20,NNE,13,1.1,1.1,93,0.09,RA,,0.91,WeatherDisplay:10.37,2013-04-04 16:14:00,
2013-04-04 11:19:00,44.9,43.0,30.20,NNE,13,1.1,1.1,93,0.08,RA,,0.91,WeatherDisplay:10.37,2013-04-04 16:19:00,
2013-04-04 11:24:00,45.1,43.2,30.20,NNE,13,1.1,1.1,93,0.07,,,0.91,WeatherDisplay:10.37,2013-04-04 16:24:00,
2013-04-04 11:29:00,45.2,43.3,30.20,NNE,13,1.1,1.1,93,0.07,RA,,0.92,WeatherDisplay:10.37,2013-04-04 16:29:00,
2013-04-04 11:34:00,45.4,43.5,30.20,NNE,13,0.0,0.0,93,0.00,RA,,0.92,WeatherDisplay:10.37,2013-04-04 16:34:00,
2013-04-04 11:39:00,45.4,43.5,30.20,NNE,13,0.0,1.0,93,0.00,,,0.92,WeatherDisplay:10.37,2013-04-04 16:39:00,
2013-04-04 11:44:00,45.2,43.3,30.20,NNE,13,0.0,0.0,93,0.00,RA,,0.93,WeatherDisplay:10.37,2013-04-04 16:44:00,
2013-04-04 11:50:00,45.4,43.5,30.20,NNE,13,0.0,1.0,93,0.00,RA,,0.93,WeatherDisplay:10.37,2013-04-04 16:50:00,
2013-04-04 11:55:00,45.5,43.6,30.20,NNE,13,0.0,0.0,93,0.00,RA,,0.94,WeatherDisplay:10.37,2013-04-04 16:55:00,
2013-04-04 12:00:00,45.5,43.6,30.19,NNE,13,1.0,0.0,93,0.05,RA,,0.94,WeatherDisplay:10.37,2013-04-04 17:00:00,
2013-04-04 12:05:00,45.2,43.0,30.19,ESE,109,3.5,3.5,92,0.06,RA,,0.95,WeatherDisplay:10.37,2013-04-04 17:05:00,
2013-04-04 12:10:00,45.2,43.0,30.19,ESE,110,0.0,0.0,92,0.05,RA,,0.95,WeatherDisplay:10.37,2013-04-04 17:10:00,
2013-04-04 12:15:00,45.4,43.2,30.19,NE,47,3.5,0.0,92,0.04,CLR,,0.95,WeatherDisplay:10.37,2013-04-04 17:15:00,
2013-04-04 12:20:00,45.5,43.3,30.19,ENE,71,1.0,1.0,92,0.04,CLR,,0.95,WeatherDisplay:10.37,2013-04-04 17:20:00,
2013-04-04 12:25:00,45.5,43.0,30.19,NNE,32,0.0,0.0,91,0.04,CLR,,0.95,WeatherDisplay:10.37,2013-04-04 17:25:00,
2013-04-04 12:30:00,45.5,43.0,30.18,NNE,32,1.1,1.1,91,0.03,CLR,,0.95,WeatherDisplay:10.37,2013-04-04 17:30:00,
2013-04-04 12:35:00,45.5,43.0,30.18,NNE,32,0.0,0.0,91,0.03,CLR,,0.95,WeatherDisplay:10.37,2013-04-04 17:35:00,
2013-04-04 12:40:00,45.2,42.7,30.18,ESE,122,1.1,1.1,91,0.04,RA,,0.96,WeatherDisplay:10.37,2013-04-04 17:40:00,
2013-04-04 12:45:00,45.1,42.6,30.18,ESE,122,1.1,0.0,91,0.03,RA,,0.96,WeatherDisplay:10.37,2013-04-04 17:45:00,
2013-04-04 12:50:00,45.1,42.6,30.18,ESE,122,0.0,0.0,91,0.04,RA,,0.97,WeatherDisplay:10.37,2013-04-04 17:50:00,
2013-04-04 12:55:00,45.1,42.9,30.18,ESE,122,0.0,0.0,92,0.03,RA,,0.97,WeatherDisplay:10.37,2013-04-04 17:55:00,
2013-04-04 13:00:00,45.1,42.9,30.18,ESE,122,0.0,0.0,92,0.03,,,0.97,WeatherDisplay:10.37,2013-04-04 18:00:00,
2013-04-04 13:05:00,45.1,42.9,30.18,ESE,122,0.0,0.1,92,0.03,RA,,0.98,WeatherDisplay:10.37,2013-04-04 18:05:00,
2013-04-04 13:10:00,44.9,42.7,30.18,ESE,122,0.0,0.0,92,0.03,RA,,0.98,WeatherDisplay:10.37,2013-04-04 18:10:00,
2013-04-04 13:15:00,44.9,42.7,30.18,ESE,122,0.0,0.0,92,0.03,CLR,,0.98,WeatherDisplay:10.37,2013-04-04 18:15:00,
2013-04-04 13:20:00,44.8,42.6,30.18,ESE,122,0.0,0.0,92,0.03,CLR,,0.98,WeatherDisplay:10.37,2013-04-04 18:20:00,
2013-04-04 13:25:00,44.8,42.6,30.17,ESE,122,0.0,0.0,92,0.03,CLR,,0.98,WeatherDisplay:10.37,2013-04-04 18:25:00,
2013-04-04 13:30:00,44.8,42.6,30.17,ESE,122,0.0,0.0,92,0.03,CLR,,0.98,WeatherDisplay:10.37,2013-04-04 18:30:00,
2013-04-04 13:35:00,44.8,42.6,30.16,ESE,122,0.0,0.0,92,0.04,RA,,0.99,WeatherDisplay:10.37,2013-04-04 18:35:00,
2013-04-04 13:40:00,45.1,43.2,30.16,ESE,122,0.0,0.0,93,0.03,RA,,0.99,WeatherDisplay:10.37,2013-04-04 18:40:00,
2013-04-04 13:45:00,45.2,43.3,30.16,ESE,122,1.1,1.1,93,0.03,CLR,,0.99,WeatherDisplay:10.37,2013-04-04 18:45:00,
2013-04-04 13:50:00,45.4,43.5,30.16,ESE,122,0.0,0.0,93,0.02,CLR,,0.99,WeatherDisplay:10.37,2013-04-04 18:50:00,
2013-04-04 13:55:00,45.5,43.6,30.16,ESE,122,0.0,0.0,93,0.02,CLR,,0.99,WeatherDisplay:10.37,2013-04-04 18:55:00,
2013-04-04 14:00:00,45.5,43.6,30.15,NE,53,2.0,2.0,93,0.02,CLR,,0.99,WeatherDisplay:10.37,2013-04-04 19:00:00,
2013-04-04 14:05:00,45.7,43.8,30.15,NE,34,1.1,1.1,93,0.01,CLR,,0.99,WeatherDisplay:10.37,2013-04-04 19:05:00,
2013-04-04 14:10:00,45.8,43.9,30.15,NNE,25,2.3,2.3,93,0.01,CLR,,0.99,WeatherDisplay:10.37,2013-04-04 19:10:00,
2013-04-04 14:15:00,45.5,43.6,30.15,NE,34,1.1,0.0,93,0.02,RA,,1.00,WeatherDisplay:10.37,2013-04-04 19:15:00,
2013-04-04 14:20:00,45.5,43.6,30.15,NE,34,0.0,0.0,93,0.02,RA,,1.00,WeatherDisplay:10.37,2013-04-04 19:20:00,
2013-04-04 14:25:00,45.5,43.6,30.15,NE,34,0.0,0.0,93,0.02,CLR,,1.00,WeatherDisplay:10.37,2013-04-04 19:25:00,
2013-04-04 14:30:00,45.2,43.0,30.15,ESE,110,3.5,3.5,92,0.02,CLR,,1.00,WeatherDisplay:10.37,2013-04-04 19:30:00,
2013-04-04 14:36:00,45.2,43.0,30.14,NNE,30,2.3,2.3,92,0.02,RA,,1.01,WeatherDisplay:10.37,2013-04-04 19:36:00,
2013-04-04 14:41:00,45.1,42.9,30.14,NNE,30,2.0,2.0,92,0.02,RA,,1.01,WeatherDisplay:10.37,2013-04-04 19:41:00,
2013-04-04 14:46:00,45.2,43.3,30.14,NNE,30,1.1,1.1,93,0.03,RA,,1.02,WeatherDisplay:10.37,2013-04-04 19:46:00,
2013-04-04 14:51:00,45.2,43.3,30.14,NNE,30,2.3,2.3,93,0.03,RA,,1.02,WeatherDisplay:10.37,2013-04-04 19:51:00,
2013-04-04 14:56:00,45.2,43.3,30.13,North,11,3.5,3.5,93,0.04,RA,,1.03,WeatherDisplay:10.37,2013-04-04 19:56:00,
2013-04-04 15:01:00,45.4,43.5,30.13,NNE,12,2.0,2.0,93,0.04,RA,,1.03,WeatherDisplay:10.37,2013-04-04 20:01:00,
2013-04-04 15:06:00,45.4,43.5,30.13,NNE,32,3.5,3.5,93,0.04,,,1.03,WeatherDisplay:10.37,2013-04-04 20:06:00,
2013-04-04 15:12:00,45.4,43.5,30.13,NNE,17,3.0,3.0,93,0.05,RA,,1.04,WeatherDisplay:10.37,2013-04-04 20:12:00,
2013-04-04 15:17:00,45.2,43.3,30.13,NNE,24,3.5,3.5,93,0.04,RA,,1.04,WeatherDisplay:10.37,2013-04-04 20:17:00,
2013-04-04 15:22:00,45.2,43.3,30.13,NNE,18,4.6,4.6,93,0.05,RA,,1.05,WeatherDisplay:10.37,2013-04-04 20:22:00,
2013-04-04 15:27:00,45.2,43.3,30.13,NNE,17,2.3,2.3,93,0.05,RA,,1.05,WeatherDisplay:10.37,2013-04-04 20:27:00,
2013-04-04 15:32:00,45.4,43.5,30.13,NNE,17,1.0,1.0,93,0.05,,,1.05,WeatherDisplay:10.37,2013-04-04 20:32:00,
2013-04-04 15:37:00,45.5,43.6,30.13,NNE,17,1.1,1.1,93,0.05,RA,,1.06,WeatherDisplay:10.37,2013-04-04 20:37:00,
2013-04-04 15:42:00,45.7,43.8,30.13,NNE,17,3.5,3.5,93,0.05,RA,,1.06,WeatherDisplay:10.37,2013-04-04 20:42:00,
2013-04-04 15:47:00,45.7,43.8,30.13,NNE,17,2.0,2.0,93,0.04,,,1.06,WeatherDisplay:10.37,2013-04-04 20:47:00,
2013-04-04 15:52:00,45.5,43.3,30.13,North,355,1.1,1.1,92,0.05,RA,,1.07,WeatherDisplay:10.37,2013-04-04 20:52:00,
2013-04-04 15:57:00,45.4,43.2,30.13,North,10,0.0,0.0,92,0.04,RA,,1.07,WeatherDisplay:10.37,2013-04-04 20:57:00,
2013-04-04 16:02:00,45.4,43.2,30.13,North,10,0.0,0.0,92,0.04,,,1.07,WeatherDisplay:10.37,2013-04-04 21:02:00,
2013-04-04 16:07:00,45.5,43.3,30.12,North,10,0.0,0.0,92,0.04,CLR,,1.07,WeatherDisplay:10.37,2013-04-04 21:07:00,
2013-04-04 16:12:00,45.5,43.3,30.12,North,10,2.3,2.3,92,0.03,CLR,,1.07,WeatherDisplay:10.37,2013-04-04 21:12:00,
2013-04-04 16:17:00,45.7,43.5,30.12,North,9,0.0,0.0,92,0.03,CLR,,1.07,WeatherDisplay:10.37,2013-04-04 21:17:00,
2013-04-04 16:22:00,45.5,43.3,30.11,North,10,1.1,1.1,92,0.02,CLR,,1.07,WeatherDisplay:10.37,2013-04-04 21:22:00,
2013-04-04 16:27:00,45.7,43.5,30.11,North,10,0.0,0.0,92,0.02,CLR,,1.07,WeatherDisplay:10.37,2013-04-04 21:27:00,
2013-04-04 16:32:00,45.7,43.5,30.11,North,10,0.0,0.0,92,0.02,CLR,,1.07,WeatherDisplay:10.37,2013-04-04 21:32:00,
2013-04-04 16:37:00,45.7,43.5,30.11,North,10,0.0,0.0,92,0.01,CLR,,1.07,WeatherDisplay:10.37,2013-04-04 21:37:00,
2013-04-04 16:42:00,45.7,43.5,30.11,North,10,1.1,0.0,92,0.01,CLR,,1.07,WeatherDisplay:10.37,2013-04-04 21:42:00,
2013-04-04 16:47:00,45.7,43.5,30.11,North,10,0.0,0.0,92,0.01,CLR,,1.07,WeatherDisplay:10.37,2013-04-04 21:47:00,
2013-04-04 16:53:00,45.5,43.3,30.11,North,10,1.1,0.0,92,0.00,CLR,,1.07,WeatherDisplay:10.37,2013-04-04 21:53:00,
2013-04-04 16:58:00,45.5,43.3,30.11,North,10,1.1,0.0,92,0.00,CLR,,1.07,WeatherDisplay:10.37,2013-04-04 21:58:00,
2013-04-04 17:03:00,45.5,43.3,30.11,North,10,0.0,0.0,92,0.00,CLR,,1.07,WeatherDisplay:10.37,2013-04-04 22:03:00,
2013-04-04 17:08:00,45.5,43.3,30.11,North,10,3.5,3.5,92,0.00,CLR,,1.07,WeatherDisplay:10.37,2013-04-04 22:08:00,
2013-04-04 17:13:00,45.4,43.2,30.11,North,10,0.0,0.0,92,0.00,CLR,,1.07,WeatherDisplay:10.37,2013-04-04 22:13:00,
2013-04-04 17:18:00,45.4,43.2,30.11,North,10,2.3,2.3,92,0.00,CLR,,1.07,WeatherDisplay:10.37,2013-04-04 22:18:00,
2013-04-04 17:23:00,45.2,43.0,30.10,NE,46,1.0,1.0,92,0.00,CLR,,1.07,WeatherDisplay:10.37,2013-04-04 22:23:00,
2013-04-04 17:28:00,45.4,43.2,30.10,NE,46,3.5,3.5,92,0.00,CLR,,1.07,WeatherDisplay:10.37,2013-04-04 22:28:00,
2013-04-04 17:33:00,45.4,43.2,30.10,NE,46,0.0,0.0,92,0.00,CLR,,1.07,WeatherDisplay:10.37,2013-04-04 22:33:00,
2013-04-04 17:38:00,45.4,43.5,30.10,NE,46,2.3,2.3,93,0.00,CLR,,1.07,WeatherDisplay:10.37,2013-04-04 22:38:00,
2013-04-04 17:43:00,45.4,43.5,30.10,NE,46,0.0,0.0,93,0.00,CLR,,1.07,WeatherDisplay:10.37,2013-04-04 22:43:00,
2013-04-04 17:48:00,45.4,43.5,30.10,NE,46,0.0,0.0,93,0.00,CLR,,1.07,WeatherDisplay:10.37,2013-04-04 22:48:00,
2013-04-04 17:53:00,45.4,43.5,30.10,NE,46,0.0,0.0,93,0.00,CLR,,1.07,WeatherDisplay:10.37,2013-04-04 22:53:00,
2013-04-04 17:58:00,45.4,43.5,30.10,NE,46,0.0,0.0,93,0.00,CLR,,1.07,WeatherDisplay:10.37,2013-04-04 22:58:00,
2013-04-04 18:03:00,45.4,43.2,30.10,NE,46,0.0,0.0,92,0.00,CLR,,1.07,WeatherDisplay:10.37,2013-04-04 23:03:00,
2013-04-04 18:08:00,45.2,43.0,30.10,NE,46,0.0,0.0,92,0.00,CLR,,1.07,WeatherDisplay:10.37,2013-04-04 23:08:00,
2013-04-04 18:13:00,45.4,43.2,30.10,NE,46,0.0,0.0,92,0.00,CLR,,1.07,WeatherDisplay:10.37,2013-04-04 23:13:00,
2013-04-04 18:18:00,45.4,43.2,30.10,NE,46,0.0,0.0,92,0.00,CLR,,1.07,WeatherDisplay:10.37,2013-04-04 23:18:00,
2013-04-04 18:23:00,45.4,43.2,30.10,NE,46,0.0,0.0,92,0.00,CLR,,1.07,WeatherDisplay:10.37,2013-04-04 23:23:00,
2013-04-04 18:28:00,45.2,43.0,30.10,NE,46,0.0,0.0,92,0.00,CLR,,1.07,WeatherDisplay:10.37,2013-04-04 23:28:00,
2013-04-04 18:33:00,45.2,43.0,30.10,NE,46,0.0,0.0,92,0.00,CLR,,1.07,WeatherDisplay:10.37,2013-04-04 23:33:00,
2013-04-04 18:38:00,45.2,43.0,30.10,NE,46,0.0,0.0,92,0.00,CLR,,1.07,WeatherDisplay:10.37,2013-04-04 23:38:00,
2013-04-04 18:43:00,45.4,43.2,30.10,NE,46,0.0,0.0,92,0.00,CLR,,1.07,WeatherDisplay:10.37,2013-04-04 23:43:00,
2013-04-04 18:48:00,45.4,43.2,30.10,NE,46,0.0,0.0,92,0.00,CLR,,1.07,WeatherDisplay:10.37,2013-04-04 23:48:00,
2013-04-04 18:53:00,45.4,43.2,30.10,NE,46,0.0,0.0,92,0.00,CLR,,1.07,WeatherDisplay:10.37,2013-04-04 23:53:00,
2013-04-04 18:58:00,45.4,43.2,30.10,NE,46,0.0,0.0,92,0.00,CLR,,1.07,WeatherDisplay:10.37,2013-04-04 23:58:00,
2013-04-04 19:03:00,45.4,43.2,30.10,NE,46,0.0,0.0,92,0.00,CLR,,1.07,WeatherDisplay:10.37,2013-04-05 00:03:00,
2013-04-04 19:08:00,45.4,43.2,30.10,NE,46,0.0,0.0,92,0.00,CLR,,1.07,WeatherDisplay:10.37,2013-04-05 00:08:00,
2013-04-04 19:13:00,45.4,43.5,30.09,NE,46,0.0,0.0,93,0.00,CLR,,1.07,WeatherDisplay:10.37,2013-04-05 00:13:00,
2013-04-04 19:18:00,45.4,43.5,30.09,NE,46,0.0,0.0,93,0.00,CLR,,1.07,WeatherDisplay:10.37,2013-04-05 00:18:00,
2013-04-04 19:23:00,45.4,43.5,30.09,NE,46,0.0,0.0,93,0.00,CLR,,1.07,WeatherDisplay:10.37,2013-04-05 00:23:00,
2013-04-04 19:28:00,45.4,43.5,30.09,NE,46,0.0,0.0,93,0.00,CLR,,1.07,WeatherDisplay:10.37,2013-04-05 00:28:00,
2013-04-04 19:33:00,45.4,43.5,30.09,NE,46,0.0,0.0,93,0.00,CLR,,1.07,WeatherDisplay:10.37,2013-04-05 00:33:00,
2013-04-04 19:38:00,45.2,43.3,30.09,NE,46,0.0,0.0,93,0.00,CLR,,1.07,WeatherDisplay:10.37,2013-04-05 00:38:00,
2013-04-04 19:43:00,45.2,43.3,30.09,NE,46,0.0,0.0,93,0.00,CLR,,1.07,WeatherDisplay:10.37,2013-04-05 00:43:00,
2013-04-04 19:48:00,45.2,43.3,30.09,NE,46,0.0,0.0,93,0.00,CLR,,1.07,WeatherDisplay:10.37,2013-04-05 00:48:00,
2013-04-04 19:53:00,45.2,43.3,30.09,NE,46,0.0,0.0,93,0.00,CLR,,1.07,WeatherDisplay:10.37,2013-04-05 00:53:00,
2013-04-04 19:58:00,45.2,43.3,30.09,NE,46,0.0,0.0,93,0.00,CLR,,1.07,WeatherDisplay:10.37,2013-04-05 00:58:00,
2013-04-04 20:04:00,45.1,43.5,30.09,NE,46,0.0,0.0,94,0.00,CLR,,1.07,WeatherDisplay:10.37,2013-04-05 01:04:00,
2013-04-04 20:09:00,45.1,43.5,30.09,NE,46,0.0,0.0,94,0.00,CLR,,1.07,WeatherDisplay:10.37,2013-04-05 01:09:00,
2013-04-04 20:14:00,45.1,43.5,30.09,NE,46,0.0,0.0,94,0.00,CLR,,1.07,WeatherDisplay:10.37,2013-04-05 01:14:00,
2013-04-04 20:19:00,45.1,43.5,30.09,NE,46,0.0,0.0,94,0.00,CLR,,1.07,WeatherDisplay:10.37,2013-04-05 01:19:00,
2013-04-04 20:24:00,45.1,43.4,30.09,NE,46,0.0,0.0,94,0.00,CLR,,1.07,WeatherDisplay:10.37,2013-04-05 01:24:00,
2013-04-04 20:30:00,44.9,43.3,30.09,NE,46,0.0,0.0,94,0.00,CLR,,1.07,WeatherDisplay:10.37,2013-04-05 01:30:00,
2013-04-04 20:35:00,44.9,43.0,30.09,NE,46,0.0,0.0,93,0.00,CLR,,1.07,WeatherDisplay:10.37,2013-04-05 01:35:00,
2013-04-04 20:40:00,44.9,43.0,30.10,NE,46,0.0,0.0,93,0.00,CLR,,1.07,WeatherDisplay:10.37,2013-04-05 01:40:00,
2013-04-04 20:45:00,45.1,43.2,30.10,NE,46,0.0,0.0,93,0.00,CLR,,1.07,WeatherDisplay:10.37,2013-04-05 01:45:00,
2013-04-04 20:50:00,45.1,43.5,30.10,NE,46,0.0,0.0,94,0.00,CLR,,1.07,WeatherDisplay:10.37,2013-04-05 01:50:00,
2013-04-04 20:55:00,45.1,43.5,30.10,NE,46,0.0,0.0,94,0.00,CLR,,1.07,WeatherDisplay:10.37,2013-04-05 01:55:00,
2013-04-04 21:00:00,45.1,43.5,30.10,NE,46,0.0,0.0,94,0.00,CLR,,1.07,WeatherDisplay:10.37,2013-04-05 02:00:00,
2013-04-04 21:05:00,45.2,43.6,30.10,NE,46,0.0,0.0,94,0.00,CLR,,1.07,WeatherDisplay:10.37,2013-04-05 02:05:00,
2013-04-04 21:10:00,45.2,43.6,30.10,NE,46,0.0,0.0,94,0.00,CLR,,1.07,WeatherDisplay:10.37,2013-04-05 02:10:00,
2013-04-04 21:15:00,45.2,43.6,30.10,NE,46,0.0,0.0,94,0.00,CLR,,1.07,WeatherDisplay:10.37,2013-04-05 02:15:00,
2013-04-04 21:20:00,45.2,43.6,30.10,NE,46,0.0,0.0,94,0.00,CLR,,1.07,WeatherDisplay:10.37,2013-04-05 02:20:00,
2013-04-04 21:25:00,45.4,43.8,30.10,NE,46,0.0,0.0,94,0.00,CLR,,1.07,WeatherDisplay:10.37,2013-04-05 02:25:00,
2013-04-04 21:30:00,45.4,43.8,30.10,NE,46,0.0,0.0,94,0.00,CLR,,1.07,WeatherDisplay:10.37,2013-04-05 02:30:00,
2013-04-04 21:35:00,45.4,43.8,30.10,NE,46,0.0,0.0,94,0.00,CLR,,1.07,WeatherDisplay:10.37,2013-04-05 02:35:00,
2013-04-04 21:40:00,45.4,43.8,30.11,NE,46,0.0,0.0,94,0.00,CLR,,1.07,WeatherDisplay:10.37,2013-04-05 02:40:00,
2013-04-04 21:45:00,45.4,43.8,30.10,NE,46,0.0,0.0,94,0.00,CLR,,1.07,WeatherDisplay:10.37,2013-04-05 02:45:00,
2013-04-04 21:50:00,45.4,43.8,30.10,NE,46,0.0,0.0,94,0.00,CLR,,1.07,WeatherDisplay:10.37,2013-04-05 02:50:00,
2013-04-04 21:55:00,45.4,43.8,30.10,NE,46,0.0,0.0,94,0.00,CLR,,1.07,WeatherDisplay:10.37,2013-04-05 02:55:00,
2013-04-04 22:00:00,45.4,43.8,30.10,NE,46,0.0,0.0,94,0.00,CLR,,1.07,WeatherDisplay:10.37,2013-04-05 03:00:00,
2013-04-04 22:05:00,45.4,43.8,30.10,NE,46,0.0,0.0,94,0.00,CLR,,1.07,WeatherDisplay:10.37,2013-04-05 03:05:00,
2013-04-04 22:10:00,45.4,43.8,30.10,NE,46,0.0,0.0,94,0.00,CLR,,1.07,WeatherDisplay:10.37,2013-04-05 03:10:00,
2013-04-04 22:15:00,45.2,43.6,30.10,NE,46,0.0,0.0,94,0.00,CLR,,1.07,WeatherDisplay:10.37,2013-04-05 03:15:00,
2013-04-04 22:20:00,45.2,43.6,30.10,NE,46,0.0,0.0,94,0.00,CLR,,1.07,WeatherDisplay:10.37,2013-04-05 03:20:00,
2013-04-04 22:25:00,45.2,43.6,30.10,NE,46,0.0,0.0,94,0.00,CLR,,1.07,WeatherDisplay:10.37,2013-04-05 03:25:00,
2013-04-04 22:30:00,45.2,43.6,30.10,NE,46,0.0,0.0,94,0.00,CLR,,1.07,WeatherDisplay:10.37,2013-04-05 03:30:00,
2013-04-04 22:35:00,45.2,43.3,30.10,NE,46,0.0,0.0,93,0.00,CLR,,1.07,WeatherDisplay:10.37,2013-04-05 03:35:00,
2013-04-04 22:40:00,45.2,43.3,30.10,NE,46,0.0,0.0,93,0.00,CLR,,1.07,WeatherDisplay:10.37,2013-04-05 03:40:00,
2013-04-04 22:45:00,45.2,43.3,30.10,NE,46,0.0,0.0,93,0.00,CLR,,1.07,WeatherDisplay:10.37,2013-04-05 03:45:00,
2013-04-04 22:50:00,45.4,43.5,30.10,NE,46,0.0,0.0,93,0.00,CLR,,1.07,WeatherDisplay:10.37,2013-04-05 03:50:00,
2013-04-04 22:55:00,45.4,43.5,30.10,NE,46,0.0,0.0,93,0.00,CLR,,1.07,WeatherDisplay:10.37,2013-04-05 03:55:00,
2013-04-04 23:00:00,45.4,43.5,30.10,NE,46,0.0,0.0,93,0.00,CLR,,1.07,WeatherDisplay:10.37,2013-04-05 04:00:00,
2013-04-04 23:05:00,45.2,43.3,30.10,NE,46,0.0,0.0,93,0.00,CLR,,1.07,WeatherDisplay:10.37,2013-04-05 04:05:00,
2013-04-04 23:10:00,45.2,43.3,30.10,NE,46,0.0,0.0,93,0.00,CLR,,1.07,WeatherDisplay:10.37,2013-04-05 04:10:00,
2013-04-04 23:15:00,45.4,43.5,30.10,NE,46,0.0,0.0,93,0.00,CLR,,1.07,WeatherDisplay:10.37,2013-04-05 04:15:00,
2013-04-04 23:20:00,45.4,43.5,30.10,NE,46,0.0,0.0,93,0.00,CLR,,1.07,WeatherDisplay:10.37,2013-04-05 04:20:00,
2013-04-04 23:25:00,45.4,43.5,30.10,NE,46,0.0,0.0,93,0.00,CLR,,1.07,WeatherDisplay:10.37,2013-04-05 04:25:00,
2013-04-04 23:30:00,45.4,43.5,30.10,NE,46,0.0,0.0,93,0.00,CLR,,1.07,WeatherDisplay:10.37,2013-04-05 04:30:00,
2013-04-04 23:35:00,45.4,43.5,30.10,NE,46,0.0,0.0,93,0.00,CLR,,1.07,WeatherDisplay:10.37,2013-04-05 04:35:00,
2013-04-04 23:40:00,45.4,43.5,30.10,NE,46,0.0,0.0,93,0.00,CLR,,1.07,WeatherDisplay:10.37,2013-04-05 04:40:00,
2013-04-04 23:45:00,45.4,43.5,30.10,NE,46,0.0,0.0,93,0.00,CLR,,1.07,WeatherDisplay:10.37,2013-04-05 04:45:00,
2013-04-04 23:50:00,45.4,43.5,30.10,NE,46,0.0,0.0,93,0.00,CLR,,1.07,WeatherDisplay:10.37,2013-04-05 04:50:00,
2013-04-04 23:55:00,45.4,43.8,30.10,NE,46,0.0,0.0,94,0.00,CLR,,1.07,WeatherDisplay:10.37,2013-04-05 04:55:00,